createdAt,value
2022-08-27T00:01:22.887Z,8.77
2022-08-27T00:03:50.319Z,9.32
2022-08-27T00:06:20.259Z,8.73
2022-08-27T00:08:49.049Z,9.07
2022-08-27T00:11:18.334Z,9.40
2022-08-27T00:13:46.472Z,8.07
2022-08-27T00:16:16.883Z,9.20
2022-08-27T00:18:48.222Z,9.38
2022-08-27T00:21:17.774Z,8.85
2022-08-27T00:23:45.475Z,8.65
2022-08-27T00:26:14.487Z,9.48
2022-08-27T00:28:43.353Z,9.65
2022-08-27T00:31:12.158Z,9.38
2022-08-27T00:33:40.595Z,11.05
2022-08-27T00:36:08.453Z,9.30
2022-08-27T00:38:36.347Z,9.85
2022-08-27T00:41:03.444Z,11.40
2022-08-27T00:43:50.499Z,11.43
2022-08-27T00:46:48.737Z,11.05
2022-08-27T00:49:52.081Z,10.32
2022-08-27T00:52:38.138Z,10.75
2022-08-27T00:55:40.339Z,8.80
2022-08-27T00:58:29.608Z,8.82
2022-08-27T01:00:58.310Z,9.55
2022-08-27T01:03:27.115Z,9.32
2022-08-27T01:05:58.179Z,9.48
2022-08-27T01:08:29.271Z,8.82
2022-08-27T01:10:59.335Z,8.77
2022-08-27T01:13:44.157Z,9.25
2022-08-27T01:16:26.474Z,8.43
2022-08-27T01:18:56.323Z,8.93
2022-08-27T01:21:54.816Z,8.82
2022-08-27T01:24:40.909Z,8.80
2022-08-27T01:27:13.741Z,8.57
2022-08-27T01:29:42.539Z,8.70
2022-08-27T01:32:19.588Z,8.48
2022-08-27T01:34:48.434Z,9.07
2022-08-27T01:37:23.792Z,8.98
2022-08-27T01:39:54.119Z,8.32
2022-08-27T01:42:36.269Z,8.88
2022-08-27T01:45:14.799Z,9.27
2022-08-27T01:47:42.540Z,9.27
2022-08-27T01:50:19.527Z,9.57
2022-08-27T01:52:47.004Z,9.30
2022-08-27T01:55:17.729Z,8.50
2022-08-27T01:57:46.436Z,10.43
2022-08-27T02:00:25.339Z,8.85
2022-08-27T02:02:52.630Z,10.95
2022-08-27T02:05:20.108Z,10.07
2022-08-27T02:07:47.706Z,8.40
2022-08-27T02:10:25.986Z,10.23
2022-08-27T02:12:53.053Z,9.80
2022-08-27T02:15:21.368Z,10.60
2022-08-27T02:17:49.064Z,11.43
2022-08-27T02:20:17.811Z,10.77
2022-08-27T02:22:45.315Z,10.63
2022-08-27T02:25:15.309Z,9.65
2022-08-27T02:27:43.343Z,8.88
2022-08-27T02:30:15.870Z,8.50
2022-08-27T02:32:43.052Z,9.27
2022-08-27T02:35:10.171Z,8.77
2022-08-27T02:37:38.012Z,10.55
2022-08-27T02:40:07.269Z,11.02
2022-08-27T02:42:34.781Z,10.48
2022-08-27T02:45:01.845Z,10.18
2022-08-27T02:47:29.275Z,9.13
2022-08-27T02:49:56.552Z,10.32
2022-08-27T02:52:25.072Z,9.95
2022-08-27T02:54:53.451Z,10.80
2022-08-27T02:57:22.244Z,9.93
2022-08-27T02:59:51.416Z,10.90
2022-08-27T03:02:20.606Z,11.27
2022-08-27T03:04:48.668Z,9.88
2022-08-27T03:07:18.903Z,10.13
2022-08-27T03:09:46.245Z,9.20
2022-08-27T03:12:13.222Z,10.88
2022-08-27T03:14:40.930Z,9.98
2022-08-27T03:17:26.341Z,12.88
2022-08-27T03:19:54.178Z,10.70
2022-08-27T03:22:21.224Z,9.48
2022-08-27T03:24:48.270Z,10.07
2022-08-27T03:27:15.520Z,8.95
2022-08-27T03:29:42.513Z,9.63
2022-08-27T03:32:09.777Z,9.05
2022-08-27T03:34:36.825Z,7.47
2022-08-27T03:37:03.881Z,7.30
2022-08-27T03:39:30.940Z,7.10
2022-08-27T03:41:57.946Z,6.80
2022-08-27T03:44:25.050Z,5.82
2022-08-27T03:46:52.919Z,6.80
2022-08-27T03:49:22.202Z,5.55
2022-08-27T03:51:51.792Z,5.45
2022-08-27T03:54:19.310Z,6.05
2022-08-27T03:56:47.110Z,5.65
2022-08-27T03:59:15.830Z,6.78
2022-08-27T04:01:44.999Z,5.57
2022-08-27T04:04:13.188Z,5.75
2022-08-27T04:06:41.424Z,5.35
2022-08-27T04:09:08.736Z,7.10
2022-08-27T04:11:36.215Z,8.00
2022-08-27T04:14:20.752Z,6.20
2022-08-27T04:16:56.195Z,7.03
2022-08-27T04:19:28.101Z,6.32
2022-08-27T04:22:01.295Z,6.75
2022-08-27T04:24:31.073Z,6.72
2022-08-27T04:26:59.590Z,7.15
2022-08-27T04:29:26.917Z,7.57
2022-08-27T04:31:54.222Z,11.02
2022-08-27T04:34:21.238Z,8.48
2022-08-27T04:36:48.882Z,8.23
2022-08-27T04:39:16.757Z,8.95
2022-08-27T04:41:43.910Z,9.32
2022-08-27T04:44:11.308Z,12.98
2022-08-27T04:46:40.723Z,12.35
2022-08-27T04:49:15.288Z,11.38
2022-08-27T04:51:43.471Z,11.88
2022-08-27T04:54:11.228Z,13.98
2022-08-27T04:56:39.288Z,17.02
2022-08-27T04:59:10.152Z,16.73
2022-08-27T05:01:39.898Z,14.48
2022-08-27T05:04:08.856Z,16.45
2022-08-27T05:06:36.909Z,15.68
2022-08-27T05:09:05.643Z,18.33
2022-08-27T05:11:34.709Z,16.90
2022-08-27T05:14:07.536Z,20.08
2022-08-27T05:16:38.863Z,17.48
2022-08-27T05:19:09.922Z,14.63
2022-08-27T05:21:40.879Z,17.77
2022-08-27T05:24:08.279Z,17.45
2022-08-27T05:26:37.188Z,16.15
2022-08-27T05:29:06.249Z,17.05
2022-08-27T05:31:35.080Z,15.63
2022-08-27T05:34:03.688Z,17.95
2022-08-27T05:36:37.479Z,17.10
2022-08-27T05:39:06.308Z,15.77
2022-08-27T05:41:34.755Z,18.52
2022-08-27T05:44:39.453Z,17.73
2022-08-27T05:46:58.608Z,18.90
2022-08-27T05:49:25.960Z,16.10
2022-08-27T05:51:52.865Z,15.60
2022-08-27T05:54:20.183Z,18.77
2022-08-27T05:56:49.926Z,17.63
2022-08-27T05:59:37.399Z,18.10
2022-08-27T06:02:06.257Z,16.65
2022-08-27T06:04:33.316Z,17.23
2022-08-27T06:07:00.492Z,15.70
2022-08-27T06:09:29.434Z,16.08
2022-08-27T06:11:59.679Z,14.95
2022-08-27T06:14:27.436Z,13.15
2022-08-27T06:16:55.661Z,14.90
2022-08-27T06:19:23.821Z,13.68
2022-08-27T06:22:00.962Z,12.32
2022-08-27T06:24:39.419Z,14.45
2022-08-27T06:27:06.556Z,14.13
2022-08-27T06:29:35.174Z,15.55
2022-08-27T06:32:02.553Z,14.65
2022-08-27T06:34:29.790Z,14.35
2022-08-27T06:36:56.820Z,16.83
2022-08-27T06:39:23.736Z,16.23
2022-08-27T06:41:50.731Z,15.25
2022-08-27T06:44:25.574Z,14.68
2022-08-27T06:46:52.637Z,16.33
2022-08-27T06:49:19.880Z,16.55
2022-08-27T06:51:48.335Z,14.98
2022-08-27T06:54:16.723Z,17.48
2022-08-27T06:56:47.764Z,15.68
2022-08-27T06:59:18.915Z,15.20
2022-08-27T07:01:49.567Z,16.52
2022-08-27T07:04:32.412Z,17.02
2022-08-27T07:07:02.441Z,16.05
2022-08-27T07:09:32.126Z,17.75
2022-08-27T07:12:00.481Z,18.17
2022-08-27T07:14:27.582Z,17.95
2022-08-27T07:16:55.285Z,19.40
2022-08-27T07:19:22.325Z,20.98
2022-08-27T07:21:50.911Z,20.73
2022-08-27T07:24:19.235Z,20.42
2022-08-27T07:26:46.655Z,21.13
2022-08-27T07:29:15.561Z,19.35
2022-08-27T07:31:43.927Z,19.75
2022-08-27T07:34:11.612Z,17.48
2022-08-27T07:36:39.235Z,17.35
2022-08-27T07:39:06.931Z,16.60
2022-08-27T07:41:54.049Z,17.35
2022-08-27T07:44:31.068Z,15.82
2022-08-27T07:47:02.421Z,13.88
2022-08-27T07:49:31.932Z,15.40
2022-08-27T07:51:59.022Z,16.05
2022-08-27T07:54:26.625Z,14.88
2022-08-27T07:56:56.007Z,14.75
2022-08-27T07:59:27.377Z,14.45
2022-08-27T08:01:56.784Z,16.20
2022-08-27T08:04:25.121Z,17.80
2022-08-27T08:06:52.633Z,16.85
2022-08-27T08:09:22.293Z,17.52
2022-08-27T08:11:50.398Z,17.65
2022-08-27T08:14:19.031Z,18.35
2022-08-27T08:16:46.523Z,17.52
2022-08-27T08:19:13.673Z,17.98
2022-08-27T08:21:41.655Z,17.50
2022-08-27T08:24:08.686Z,17.35
2022-08-27T08:26:35.943Z,17.13
2022-08-27T08:29:05.115Z,20.05
2022-08-27T08:31:32.342Z,17.75
2022-08-27T08:33:59.301Z,18.73
2022-08-27T08:36:26.287Z,17.45
2022-08-27T08:38:54.363Z,16.95
2022-08-27T08:41:42.331Z,15.90
2022-08-27T08:44:43.127Z,14.07
2022-08-27T08:47:27.624Z,13.55
2022-08-27T08:50:28.964Z,14.05
2022-08-27T08:53:57.329Z,14.52
2022-08-27T08:56:59.701Z,12.80
2022-08-27T08:59:35.392Z,11.90
2022-08-27T09:02:02.498Z,11.85
2022-08-27T09:04:30.468Z,10.80
2022-08-27T09:07:26.439Z,10.60
2022-08-27T09:10:48.104Z,9.15
2022-08-27T09:13:29.661Z,9.45
2022-08-27T09:16:02.191Z,8.30
2022-08-27T09:18:29.423Z,9.45
2022-08-27T09:21:08.832Z,8.60
2022-08-27T09:24:23.179Z,9.43
2022-08-27T09:26:50.615Z,10.63
2022-08-27T09:29:20.963Z,8.40
2022-08-27T09:32:04.366Z,9.80
2022-08-27T09:34:43.943Z,9.50
2022-08-27T09:37:17.739Z,8.23
2022-08-27T09:40:13.404Z,8.63
2022-08-27T09:42:49.572Z,8.32
2022-08-27T09:45:28.076Z,8.10
2022-08-27T09:48:18.126Z,7.60
2022-08-27T09:51:01.561Z,8.35
2022-08-27T09:53:58.361Z,8.15
2022-08-27T09:56:47.163Z,8.13
2022-08-27T09:59:23.975Z,6.80
2022-08-27T10:01:54.559Z,5.72
2022-08-27T10:04:50.521Z,5.43
2022-08-27T10:07:47.155Z,4.20
2022-08-27T10:10:43.803Z,5.10
2022-08-27T10:13:33.010Z,4.32
2022-08-27T10:16:14.975Z,4.60
2022-08-27T10:19:12.977Z,4.20
2022-08-27T10:22:08.738Z,4.18
2022-08-27T10:24:46.915Z,5.15
2022-08-27T10:27:51.740Z,4.63
2022-08-27T10:30:35.526Z,4.93
2022-08-27T10:33:26.905Z,5.13
2022-08-27T10:36:29.919Z,4.43
2022-08-27T10:39:14.801Z,5.10
2022-08-27T10:45:00.258Z,2.97
2022-08-27T10:48:06.262Z,3.10
2022-08-27T10:50:56.767Z,1.77
2022-08-27T10:53:41.429Z,1.58
2022-08-27T10:56:27.683Z,1.40
2022-08-27T10:59:05.609Z,1.23
2022-08-27T11:02:13.465Z,1.23
2022-08-27T11:04:54.230Z,1.30
2022-08-27T11:07:32.552Z,1.20
2022-08-27T11:10:07.423Z,1.02
2022-08-27T11:12:47.234Z,1.00
2022-08-27T11:15:38.945Z,1.15
2022-08-27T11:18:25.194Z,1.15
2022-08-27T11:21:05.383Z,1.10
2022-08-27T11:23:53.723Z,0.88
2022-08-27T11:26:20.749Z,1.20
2022-08-27T11:29:10.715Z,0.90
2022-08-27T11:31:50.286Z,1.40
2022-08-27T11:34:45.892Z,1.40
2022-08-27T11:37:34.940Z,1.40
2022-08-27T11:40:26.526Z,1.52
2022-08-27T11:43:05.963Z,1.23
2022-08-27T11:45:50.660Z,1.50
2022-08-27T11:48:29.819Z,3.60
2022-08-27T11:51:05.934Z,2.13
2022-08-27T11:53:42.699Z,2.00
2022-08-27T11:56:33.034Z,1.90
2022-08-27T11:59:26.619Z,2.08
2022-08-27T12:02:19.490Z,1.80
2022-08-27T12:04:48.545Z,2.25
2022-08-27T12:07:21.874Z,2.03
2022-08-27T12:10:11.503Z,2.10
2022-08-27T12:17:39.688Z,2.33
2022-08-27T12:20:19.181Z,2.60
2022-08-27T12:23:42.654Z,2.90
2022-08-27T12:26:36.170Z,3.38
2022-08-27T12:29:41.158Z,2.70
2022-08-27T12:32:26.266Z,3.47
2022-08-27T12:35:18.203Z,3.30
2022-08-27T12:37:49.575Z,3.55
2022-08-27T12:40:37.645Z,3.80
2022-08-27T12:43:13.474Z,4.30
2022-08-27T12:46:06.979Z,4.38
2022-08-27T12:48:47.314Z,5.40
2022-08-27T12:51:35.127Z,4.68
2022-08-27T12:54:58.357Z,4.80
2022-08-27T12:58:03.091Z,5.30
2022-08-27T13:00:49.197Z,6.87
2022-08-27T13:03:31.290Z,6.22
2022-08-27T13:06:00.905Z,6.25
2022-08-27T13:08:35.424Z,6.85
2022-08-27T13:13:47.644Z,6.63
2022-08-27T13:16:18.343Z,6.93
2022-08-27T13:18:51.386Z,7.35
2022-08-27T13:21:29.590Z,6.35
2022-08-27T13:24:01.755Z,6.47
2022-08-27T13:26:37.509Z,6.55
2022-08-27T13:29:09.303Z,7.30
2022-08-27T13:31:37.152Z,6.00
2022-08-27T13:34:06.403Z,7.65
2022-08-27T13:37:04.102Z,8.15
2022-08-27T13:39:33.757Z,7.28
2022-08-27T13:42:04.428Z,8.02
2022-08-27T13:44:37.712Z,8.57
2022-08-27T13:47:09.508Z,8.43
2022-08-27T13:49:39.875Z,8.77
2022-08-27T13:52:15.823Z,9.55
2022-08-27T13:55:01.394Z,8.68
2022-08-27T13:57:39.922Z,8.77
2022-08-27T14:00:31.634Z,8.23
2022-08-27T14:03:01.576Z,9.43
2022-08-27T14:05:34.077Z,9.10
2022-08-27T14:08:18.017Z,7.13
2022-08-27T14:10:57.909Z,9.33
2022-08-27T14:13:27.623Z,7.93
2022-08-27T14:15:59.181Z,8.88
2022-08-27T14:18:59.036Z,8.57
2022-08-27T14:21:23.266Z,8.60
2022-08-27T14:23:50.560Z,9.70
2022-08-27T14:26:17.854Z,8.98
2022-08-27T14:28:45.809Z,9.85
2022-08-27T14:31:14.410Z,9.40
2022-08-27T14:33:41.525Z,8.88
2022-08-27T14:36:10.103Z,9.25
2022-08-27T14:38:41.864Z,7.45
2022-08-27T14:41:09.536Z,7.85
2022-08-27T14:43:37.919Z,7.85
2022-08-27T14:46:11.364Z,7.47
2022-08-27T14:48:43.390Z,8.18
2022-08-27T14:51:26.534Z,8.60
2022-08-27T14:53:54.891Z,8.02
2022-08-27T14:56:24.260Z,8.23
2022-08-27T14:58:53.739Z,8.85
2022-08-27T15:01:25.218Z,8.70
2022-08-27T15:03:53.145Z,8.27
2022-08-27T15:06:22.443Z,7.40
2022-08-27T15:08:51.567Z,6.50
2022-08-27T15:11:25.548Z,7.50
2022-08-27T15:13:54.402Z,7.53
2022-08-27T15:16:34.390Z,7.68
2022-08-27T15:19:02.384Z,7.57
2022-08-27T15:21:31.062Z,7.50
2022-08-27T15:24:02.993Z,7.45
2022-08-27T15:26:31.465Z,7.05
2022-08-27T15:29:00.763Z,7.15
2022-08-27T15:31:31.365Z,7.18
2022-08-27T15:33:58.328Z,7.32
2022-08-27T15:36:25.449Z,7.40
2022-08-27T15:38:52.516Z,7.35
2022-08-27T15:41:19.654Z,7.70
2022-08-27T15:43:46.653Z,8.25
2022-08-27T15:46:14.246Z,7.97
2022-08-27T15:48:42.534Z,7.97
2022-08-27T15:51:13.567Z,8.60
2022-08-27T15:53:43.422Z,7.75
2022-08-27T15:56:10.439Z,7.53
2022-08-27T15:58:38.538Z,7.70
2022-08-27T16:01:15.832Z,8.57
2022-08-27T16:03:50.888Z,7.90
2022-08-27T16:06:19.676Z,9.10
2022-08-27T16:08:47.367Z,7.53
2022-08-27T16:11:15.427Z,7.75
2022-08-27T16:13:44.907Z,7.57
2022-08-27T16:16:13.216Z,8.02
2022-08-27T16:18:43.144Z,7.15
2022-08-27T16:21:10.242Z,7.32
2022-08-27T16:23:37.687Z,8.25
2022-08-27T16:26:04.910Z,7.38
2022-08-27T16:28:32.135Z,7.18
2022-08-27T16:31:00.045Z,7.63
2022-08-27T16:33:27.999Z,7.28
2022-08-27T16:35:54.835Z,7.43
2022-08-27T16:38:21.739Z,7.22
2022-08-27T16:40:53.140Z,7.63
2022-08-27T16:43:24.933Z,7.85
2022-08-27T16:45:57.356Z,9.18
2022-08-27T16:48:44.432Z,8.50
2022-08-27T16:51:21.903Z,8.77
2022-08-27T16:53:50.876Z,9.95
2022-08-27T16:56:21.558Z,9.63
2022-08-27T16:58:56.069Z,9.38
2022-08-27T17:01:24.701Z,10.55
2022-08-27T17:04:08.788Z,9.50
2022-08-27T17:06:37.522Z,11.00
2022-08-27T17:09:07.416Z,10.05
2022-08-27T17:11:36.096Z,10.55
2022-08-27T17:14:04.500Z,11.65
2022-08-27T17:16:34.555Z,11.45
2022-08-27T17:19:05.081Z,12.07
2022-08-27T17:21:34.751Z,12.27
2022-08-27T17:24:02.594Z,12.30
2022-08-27T17:26:32.066Z,12.32
2022-08-27T17:29:00.144Z,10.75
2022-08-27T17:31:33.948Z,11.45
2022-08-27T17:34:02.084Z,13.05
2022-08-27T17:36:33.104Z,12.50
2022-08-27T17:39:02.858Z,12.98
2022-08-27T17:41:34.467Z,10.18
2022-08-27T17:44:24.426Z,12.88
2022-08-27T17:46:54.094Z,12.82
2022-08-27T17:49:22.061Z,13.82
2022-08-27T17:51:54.511Z,11.27
2022-08-27T17:54:32.603Z,13.88
2022-08-27T17:57:01.110Z,13.25
2022-08-27T17:59:29.149Z,13.70
2022-08-27T18:01:57.388Z,12.55
2022-08-27T18:04:24.672Z,12.15
2022-08-27T18:06:51.963Z,12.40
2022-08-27T18:09:19.097Z,12.68
2022-08-27T18:11:46.915Z,13.00
2022-08-27T18:14:18.210Z,13.23
2022-08-27T18:16:46.293Z,12.27
2022-08-27T18:19:13.642Z,12.77
2022-08-27T18:21:42.761Z,13.98
2022-08-27T18:24:15.585Z,14.02
2022-08-27T18:26:44.777Z,13.68
2022-08-27T18:29:15.014Z,12.95
2022-08-27T18:31:43.715Z,12.18
2022-08-27T18:34:11.222Z,13.50
2022-08-27T18:36:38.383Z,12.75
2022-08-27T18:39:05.605Z,12.20
2022-08-27T18:41:33.921Z,13.15
2022-08-27T18:44:01.374Z,11.77
2022-08-27T18:46:28.645Z,13.05
2022-08-27T18:48:55.824Z,13.48
2022-08-27T18:51:22.979Z,14.45
2022-08-27T18:53:50.197Z,12.02
2022-08-27T18:56:20.787Z,13.73
2022-08-27T18:58:48.922Z,14.88
2022-08-27T19:01:24.099Z,14.30
2022-08-27T19:03:54.894Z,14.10
2022-08-27T19:06:22.074Z,12.40
2022-08-27T19:08:52.204Z,12.40
2022-08-27T19:11:19.390Z,13.98
2022-08-27T19:13:50.450Z,12.73
2022-08-27T19:16:33.949Z,12.63
2022-08-27T19:19:01.192Z,12.77
2022-08-27T19:21:28.194Z,14.05
2022-08-27T19:23:55.311Z,13.80
2022-08-27T19:26:25.837Z,12.10
2022-08-27T19:28:53.410Z,13.55
2022-08-27T19:31:20.609Z,13.15
2022-08-27T19:33:47.706Z,13.05
2022-08-27T19:36:20.133Z,12.93
2022-08-27T19:38:52.150Z,13.13
2022-08-27T19:41:21.437Z,12.27
2022-08-27T19:43:51.319Z,11.98
2022-08-27T19:46:23.299Z,12.32
2022-08-27T19:48:50.488Z,12.00
2022-08-27T19:51:17.831Z,12.27
2022-08-27T19:53:45.722Z,11.30
2022-08-27T19:56:15.132Z,11.35
2022-08-27T19:58:44.250Z,11.18
2022-08-27T20:01:12.659Z,11.82
2022-08-27T20:03:39.938Z,9.75
2022-08-27T20:06:07.086Z,10.38
2022-08-27T20:08:34.308Z,10.20
2022-08-27T20:11:01.443Z,9.70
2022-08-27T20:13:32.852Z,10.13
2022-08-27T20:16:00.764Z,10.30
2022-08-27T20:18:27.793Z,10.10
2022-08-27T20:20:54.832Z,10.52
2022-08-27T20:23:22.384Z,10.88
2022-08-27T20:25:52.307Z,11.05
2022-08-27T20:28:38.834Z,10.73
2022-08-27T20:31:06.547Z,9.45
2022-08-27T20:33:34.130Z,8.43
2022-08-27T20:36:02.607Z,9.38
2022-08-27T20:38:29.671Z,8.25
2022-08-27T20:40:56.634Z,7.65
2022-08-27T20:43:23.642Z,7.43
2022-08-27T20:45:50.722Z,7.55
2022-08-27T20:48:17.851Z,7.57
2022-08-27T20:50:45.024Z,7.20
2022-08-27T20:53:12.958Z,7.15
2022-08-27T20:55:40.059Z,8.38
2022-08-27T20:58:25.621Z,7.43
2022-08-27T21:00:54.850Z,7.15
2022-08-27T21:03:22.666Z,7.20
2022-08-27T21:05:50.035Z,7.97
2022-08-27T21:08:20.211Z,8.02
2022-08-27T21:10:51.503Z,6.70
2022-08-27T21:13:20.993Z,7.88
2022-08-27T21:15:50.179Z,9.30
2022-08-27T21:18:22.018Z,8.33
2022-08-27T21:20:58.319Z,9.25
2022-08-27T21:23:27.703Z,8.10
2022-08-27T21:25:59.397Z,7.50
2022-08-27T21:28:26.228Z,9.70
2022-08-27T21:30:53.354Z,7.93
2022-08-27T21:33:20.643Z,7.05
2022-08-27T21:35:47.906Z,6.75
2022-08-27T21:38:15.018Z,7.20
2022-08-27T21:40:43.150Z,6.15
2022-08-27T21:43:10.077Z,5.15
2022-08-27T21:45:39.156Z,5.18
2022-08-27T21:48:06.377Z,5.35
2022-08-27T21:50:33.349Z,5.32
2022-08-27T21:53:00.284Z,5.82
2022-08-27T21:55:27.276Z,6.30
2022-08-27T21:57:54.244Z,5.97
2022-08-27T22:00:29.656Z,6.05
2022-08-27T22:02:57.287Z,5.70
2022-08-27T22:05:24.649Z,6.68
2022-08-27T22:07:51.706Z,6.32
2022-08-27T22:10:18.995Z,6.57
2022-08-27T22:12:46.201Z,6.65
2022-08-27T22:15:13.321Z,5.88
2022-08-27T22:17:40.310Z,6.47
2022-08-27T22:20:09.660Z,5.72
2022-08-27T22:22:37.729Z,6.28
2022-08-27T22:25:07.768Z,6.18
2022-08-27T22:27:35.672Z,6.22
2022-08-27T22:30:03.140Z,6.18
2022-08-27T22:32:30.050Z,5.82
2022-08-27T22:34:56.962Z,6.38
2022-08-27T22:37:24.006Z,7.13
2022-08-27T22:39:51.480Z,5.97
2022-08-27T22:42:19.098Z,6.32
2022-08-27T22:44:47.335Z,6.93
2022-08-27T22:47:15.108Z,7.00
2022-08-27T22:49:43.764Z,6.95
2022-08-27T22:52:11.158Z,6.65
2022-08-27T22:54:38.357Z,6.25
2022-08-27T22:57:05.931Z,7.35
2022-08-27T22:59:39.477Z,6.63
2022-08-27T23:02:09.638Z,7.50
2022-08-27T23:04:54.581Z,7.13
2022-08-27T23:07:23.325Z,6.97
2022-08-27T23:09:50.338Z,5.70
2022-08-27T23:12:17.342Z,6.45
2022-08-27T23:14:44.377Z,6.82
2022-08-27T23:17:11.371Z,6.70
2022-08-27T23:19:38.405Z,7.40
2022-08-27T23:22:07.377Z,7.63
2022-08-27T23:24:58.522Z,8.10
2022-08-27T23:27:31.411Z,7.10
2022-08-27T23:30:01.782Z,8.20
2022-08-27T23:32:29.115Z,8.05
2022-08-27T23:34:56.920Z,6.90
2022-08-27T23:37:24.885Z,8.30
2022-08-27T23:39:51.983Z,7.32
2022-08-27T23:42:19.543Z,8.43
2022-08-27T23:44:48.118Z,8.82
2022-08-27T23:47:16.365Z,7.47
2022-08-27T23:49:43.966Z,7.63
2022-08-27T23:52:12.703Z,8.40
2022-08-27T23:54:40.128Z,8.32
2022-08-27T23:57:07.066Z,8.55
2022-08-27T23:59:34.106Z,8.55
